Dades meteomassalio
Diari Summary for Octubre 28, 2017 Units:  Metric    English   Both
« Previous Day
Next Day »
Diari Semanal Mensual Anual Personalitzat
  Maxima: Minima: Mijana:
Temperatura: -17.8 °C -12.2 °C -8.9 °C
Rosada: -17.8 °C -15.4 °C -13 °C
Humitat: Humidity % 46 % 63 %
Velocitat del vent: 0 km/h 0 km/h 30.3 km/h
Racha vent: 0 km/h - -
Vent:- - SSW
Pressio: 0 hPa 34703.1 hPa -
Pluja: 0 mm    
Historical Graphs
 
 
Tabular Data for Octubre 28, 2017
Time Temperature Dew Point Pressure Wind Wind Speed Wind Gust Humidity Rainfall Rate (Hourly) solar Conditions
-17.8 °C -17.8 °C 0 hPa Calm     Humidity % 0 mm SolarRadiationWatts/m^2 W/m2 Conditions
00:04 -8.8 °C -12.3 °C 34841.9 hPa South 41.7 km/h 41.7 km/h 66 % 0 mm 0.0 W/m2 CLR
00:09 -9.1 °C -12.7 °C 34841.9 hPa SSW 29.8 km/h 29.8 km/h 66 % 0 mm 0.0 W/m2 CLR
00:14 -9.1 °C -12.7 °C 34841.9 hPa SSW 35.7 km/h 35.7 km/h 66 % 0 mm 0.0 W/m2 CLR
00:19 -9.1 °C -12.7 °C 34841.9 hPa SSW 32.8 km/h 32.8 km/h 66 % 0 mm 0.0 W/m2 CLR
00:24 -9.1 °C -12.8 °C 34841.9 hPa South 28.5 km/h 28.5 km/h 65 % 0 mm 0.0 W/m2 CLR
00:29 -9.1 °C -12.7 °C 34831.8 hPa South 31.1 km/h 31.1 km/h 66 % 0 mm 0.0 W/m2 CLR
00:34 -9.1 °C -12.7 °C 34831.8 hPa SSE 38.8 km/h 38.8 km/h 66 % 0 mm 0.0 W/m2 CLR
00:39 -9.1 °C -12.7 °C 34831.8 hPa South 35.7 km/h 35.7 km/h 66 % 0 mm 0.0 W/m2 CLR
00:44 -9.4 °C -12.9 °C 34831.8 hPa South 38.8 km/h 38.8 km/h 66 % 0 mm 0.0 W/m2 CLR
00:49 -9.4 °C -12.9 °C 34831.8 hPa South 41.7 km/h 41.7 km/h 66 % 0 mm 0.0 W/m2 CLR
00:54 -9.1 °C -12.7 °C 34831.8 hPa SSW 35.7 km/h 35.7 km/h 66 % 0 mm 0.0 W/m2 CLR
00:59 -9.1 °C -12.6 °C 34831.8 hPa SSW 38.8 km/h 38.8 km/h 67 % 0 mm 0.0 W/m2 CLR
01:04 -9.1 °C -12.6 °C 34831.8 hPa SSW 35.7 km/h 35.7 km/h 67 % 0 mm 0.0 W/m2 CLR
01:09 -9.4 °C -12.8 °C 34831.8 hPa SSW 33.6 km/h 33.6 km/h 67 % 0 mm 0.0 W/m2 CLR
01:14 -9.1 °C -12.6 °C 34831.8 hPa South 29.8 km/h 29.8 km/h 67 % 0 mm 0.0 W/m2 CLR
01:19 -9.1 °C -12.4 °C 34831.8 hPa SSW 29.8 km/h 29.8 km/h 68 % 0 mm 0.0 W/m2 CLR
01:24 -9.1 °C -12.4 °C 34831.8 hPa SSW 35.7 km/h 35.7 km/h 68 % 0 mm 0.0 W/m2 CLR
01:29 -9.1 °C -12.4 °C 34831.8 hPa SSE 29.8 km/h 29.8 km/h 68 % 0 mm 0.0 W/m2 CLR
01:34 -9.4 °C -12.7 °C 34831.8 hPa SSW 38.8 km/h 38.8 km/h 68 % 0 mm 0.0 W/m2 CLR
01:39 -9.1 °C -12.4 °C 34831.8 hPa South 36.2 km/h 36.2 km/h 68 % 0 mm 0.0 W/m2 CLR
01:44 -9.1 °C -12.4 °C 34831.8 hPa South 35.7 km/h 35.7 km/h 68 % 0 mm 0.0 W/m2 CLR
01:49 -9.1 °C -12.3 °C 34831.8 hPa South 38.8 km/h 38.8 km/h 69 % 0 mm 0.0 W/m2 CLR
01:54 -9.1 °C -12.4 °C 34831.8 hPa SSW 44.7 km/h 44.7 km/h 68 % 0 mm 0.0 W/m2 CLR
01:59 -9.1 °C -12.3 °C 34831.8 hPa South 36.2 km/h 36.2 km/h 69 % 0 mm 0.0 W/m2 CLR
02:04 -9.4 °C -12.7 °C 34831.8 hPa SSW 32.8 km/h 32.8 km/h 68 % 0 mm 0.0 W/m2 CLR
02:09 -9.1 °C -12.4 °C 34831.8 hPa SSW 38.8 km/h 38.8 km/h 68 % 0 mm 0.0 W/m2 CLR
02:14 -9.1 °C -12.4 °C 34831.8 hPa South 41.7 km/h 41.7 km/h 68 % 0 mm 0.0 W/m2 CLR
02:19 -9.1 °C -12.4 °C 34818.2 hPa SSW 38.8 km/h 38.8 km/h 68 % 0 mm 0.0 W/m2 CLR
02:24 -9.1 °C -12.4 °C 34831.8 hPa South 29.8 km/h 29.8 km/h 68 % 0 mm 0.0 W/m2 CLR
02:29 -9.4 °C -12.7 °C 34831.8 hPa South 35.7 km/h 35.7 km/h 68 % 0 mm 0.0 W/m2 CLR
02:34 -9.4 °C -12.7 °C 34831.8 hPa South 29.8 km/h 29.8 km/h 68 % 0 mm 0.0 W/m2 CLR
02:39 -9.4 °C -12.6 °C 34818.2 hPa South 44.7 km/h 44.7 km/h 69 % 0 mm 0.0 W/m2 CLR
02:44 -9.4 °C -12.6 °C 34818.2 hPa South 35.7 km/h 35.7 km/h 69 % 0 mm 0.0 W/m2 CLR
02:49 -9.4 °C -12.6 °C 34818.2 hPa SSW 35.7 km/h 35.7 km/h 69 % 0 mm 0.0 W/m2 CLR
02:54 -9.4 °C -12.6 °C 34818.2 hPa SSE 38.8 km/h 38.8 km/h 69 % 0 mm 0.0 W/m2 CLR
02:59 -9.4 °C -12.6 °C 34818.2 hPa SSW 35.7 km/h 35.7 km/h 69 % 0 mm 0.0 W/m2 CLR
03:04 -9.4 °C -12.4 °C 34818.2 hPa SSW 44.7 km/h 44.7 km/h 70 % 0 mm 0.0 W/m2 CLR
03:09 -9.4 °C -12.4 °C 34818.2 hPa SW 49.2 km/h 49.2 km/h 70 % 0 mm 0.0 W/m2 CLR
03:14 -9.4 °C -12.4 °C 34818.2 hPa SW 44.7 km/h 44.7 km/h 70 % 0 mm 0.0 W/m2 CLR
03:19 -9.4 °C -12.4 °C 34818.2 hPa SSW 35.7 km/h 35.7 km/h 70 % 0 mm 0.0 W/m2 CLR
03:24 -9.4 °C -12.4 °C 34808.1 hPa SSW 29.8 km/h 29.8 km/h 70 % 0 mm 0.0 W/m2 CLR
03:29 -9.4 °C -12.3 °C 34808.1 hPa SSW 29.8 km/h 29.8 km/h 71 % 0 mm 0.0 W/m2 CLR
03:34 -9.4 °C -12.3 °C 34808.1 hPa SSW 32.8 km/h 32.8 km/h 71 % 0 mm 0.0 W/m2 CLR
03:39 -9.4 °C -12.3 °C 34808.1 hPa SW 44.7 km/h 44.7 km/h 71 % 0 mm 0.0 W/m2 CLR
03:45 -9.4 °C -12.3 °C 34808.1 hPa SSW 38.8 km/h 38.8 km/h 71 % 0 mm 0.0 W/m2 CLR
03:50 -9.4 °C -12.2 °C 34808.1 hPa SSW 35.7 km/h 35.7 km/h 72 % 0 mm 0.0 W/m2 CLR
03:55 -9.4 °C -12.3 °C 34808.1 hPa SSW 29.8 km/h 29.8 km/h 71 % 0 mm 0.0 W/m2 CLR
04:00 -9.4 °C -12.2 °C 34818.2 hPa SSW 29.8 km/h 29.8 km/h 72 % 0 mm 0.0 W/m2 CLR
04:05 -9.4 °C -12.2 °C 34808.1 hPa SSW 29.8 km/h 29.8 km/h 72 % 0 mm 0.0 W/m2 CLR
04:10 -9.4 °C -12.2 °C 34808.1 hPa SSW 36.2 km/h 36.2 km/h 72 % 0 mm 0.0 W/m2 CLR
04:15 -9.4 °C -12.2 °C 34818.2 hPa SSW 29.8 km/h 29.8 km/h 72 % 0 mm 0.0 W/m2 CLR
04:20 -9.4 °C -12.2 °C 34808.1 hPa WSW 31.1 km/h 31.1 km/h 72 % 0 mm 0.0 W/m2 CLR
04:25 -9.8 °C -12.6 °C 34808.1 hPa SSW 29.8 km/h 29.8 km/h 72 % 0 mm 0.0 W/m2 CLR
04:30 -9.8 °C -12.6 °C 34808.1 hPa SSW 35.7 km/h 35.7 km/h 72 % 0 mm 0.0 W/m2 CLR
04:35 -9.8 °C -12.6 °C 34808.1 hPa SSW 26.9 km/h 26.9 km/h 72 % 0 mm 0.0 W/m2 CLR
04:40 -9.8 °C -12.6 °C 34808.1 hPa SSW 33.6 km/h 33.6 km/h 72 % 0 mm 0.0 W/m2 CLR
04:45 -9.8 °C -12.7 °C 34797.9 hPa SSW 35.7 km/h 35.7 km/h 71 % 0 mm 0.0 W/m2 CLR
04:50 -9.8 °C -12.6 °C 34797.9 hPa SSW 29.8 km/h 29.8 km/h 72 % 0 mm 0.0 W/m2 CLR
04:55 -9.8 °C -12.6 °C 34797.9 hPa SSW 38.8 km/h 38.8 km/h 72 % 0 mm 0.0 W/m2 CLR
05:00 -9.8 °C -12.6 °C 34808.1 hPa SSW 29.8 km/h 29.8 km/h 72 % 0 mm 0.0 W/m2 CLR
05:05 -10.1 °C -12.8 °C 34808.1 hPa SSW 32.8 km/h 32.8 km/h 72 % 0 mm 0.0 W/m2 CLR
05:10 -10.1 °C -12.8 °C 34797.9 hPa South 38.8 km/h 38.8 km/h 72 % 0 mm 0.0 W/m2 CLR
05:15 -10.1 °C -12.8 °C 34808.1 hPa SW 44.7 km/h 44.7 km/h 72 % 0 mm 0.0 W/m2 CLR
05:20 -10.1 °C -12.8 °C 34808.1 hPa South 32.8 km/h 32.8 km/h 72 % 0 mm 0.0 W/m2 CLR
05:21 -10.1 °C -12.8 °C 34808.1 hPa SSW 36.2 km/h 36.2 km/h 72 % 0 mm 0.0 W/m2 CLR
05:22 -10.1 °C -12.8 °C 34808.1 hPa SSW 32.8 km/h 32.8 km/h 72 % 0 mm 0.0 W/m2 CLR
05:23 -10.1 °C -12.8 °C 34808.1 hPa SW 36.2 km/h 36.2 km/h 72 % 0 mm 0.0 W/m2 CLR
05:27 -10.1 °C -12.8 °C 34808.1 hPa South 44.7 km/h 44.7 km/h 72 % 0 mm 0.0 W/m2 CLR
05:32 -10.1 °C -12.8 °C 34808.1 hPa SSW 47.6 km/h 47.6 km/h 72 % 0 mm 0.0 W/m2 CLR
05:37 -10.1 °C -12.9 °C 34808.1 hPa SSW 32.8 km/h 32.8 km/h 71 % 0 mm 0.0 W/m2 CLR
05:42 -10.1 °C -12.8 °C 34808.1 hPa South 29.8 km/h 29.8 km/h 72 % 0 mm 0.0 W/m2 CLR
05:47 -10.1 °C -12.8 °C 34808.1 hPa SSW 26.9 km/h 26.9 km/h 72 % 0 mm 0.0 W/m2 CLR
05:52 -10.1 °C -12.8 °C 34808.1 hPa SSW 23.8 km/h 23.8 km/h 72 % 0 mm 0.0 W/m2 CLR
05:57 -10.1 °C -12.8 °C 34808.1 hPa SSW 29.8 km/h 29.8 km/h 72 % 0 mm 0.0 W/m2 CLR
06:02 -10.4 °C -13 °C 34808.1 hPa South 26.9 km/h 26.9 km/h 73 % 0 mm 0.0 W/m2 CLR
06:08 -10.4 °C -13 °C 34808.1 hPa South 29.8 km/h 29.8 km/h 73 % 0 mm 0.0 W/m2 CLR
06:13 -10.4 °C -13 °C 34808.1 hPa South 26.9 km/h 26.9 km/h 73 % 0 mm 0.0 W/m2 CLR
06:18 -10.7 °C -13.2 °C 34808.1 hPa SSW 26.9 km/h 26.9 km/h 74 % 0 mm 0.0 W/m2 CLR
06:23 -10.7 °C -13.2 °C 34808.1 hPa South 26.9 km/h 26.9 km/h 74 % 0 mm 0.0 W/m2 CLR
06:28 -10.7 °C -13.2 °C 34808.1 hPa South 15 km/h 15 km/h 74 % 0 mm 0.0 W/m2 CLR
06:33 -10.7 °C -13.2 °C 34808.1 hPa SSE 12.9 km/h 16.6 km/h 74 % 0 mm 0.0 W/m2 CLR
06:38 -10.7 °C -13.2 °C 34808.1 hPa SSE 11.9 km/h 11.9 km/h 74 % 0 mm 0.0 W/m2 CLR
06:43 -10.7 °C -13.1 °C 34808.1 hPa SSE 15 km/h 15 km/h 75 % 0 mm 0.0 W/m2 CLR
06:48 -10.7 °C -13.1 °C 34808.1 hPa SSE 15 km/h 15 km/h 75 % 0 mm 0.0 W/m2 CLR
06:53 -11 °C -13.3 °C 34808.1 hPa SSE 23.3 km/h 23.3 km/h 76 % 0 mm 0.0 W/m2 CLR
06:58 -11.3 °C -13.6 °C 34808.1 hPa South 26.9 km/h 26.9 km/h 76 % 0 mm 0.0 W/m2 CLR
07:03 -11.3 °C -13.6 °C 34808.1 hPa South 17.9 km/h 17.9 km/h 76 % 0 mm 0.0 W/m2 CLR
07:08 -11.3 °C -13.6 °C 34808.1 hPa South 23.8 km/h 23.8 km/h 76 % 0 mm 0.0 W/m2 CLR
07:13 -11.3 °C -13.6 °C 34808.1 hPa South 17.9 km/h 17.9 km/h 76 % 0 mm 0.0 W/m2 CLR
07:18 -11.3 °C -13.4 °C 34808.1 hPa South 15.6 km/h 15.6 km/h 77 % 0 mm 0.0 W/m2 CLR
07:23 -11.3 °C -13.6 °C 34808.1 hPa South 29.8 km/h 29.8 km/h 76 % 0 mm 0.0 W/m2 CLR
07:28 -11.3 °C -13.6 °C 34808.1 hPa South 15.6 km/h 15.6 km/h 76 % 0 mm 0.0 W/m2 CLR
07:33 -11.3 °C -13.6 °C 34808.1 hPa South 15 km/h 15 km/h 76 % 0 mm 0.0 W/m2 CLR
07:38 -11.3 °C -13.6 °C 34808.1 hPa SSE 29.8 km/h 29.8 km/h 76 % 0 mm 0.0 W/m2 CLR
07:43 -11.3 °C -13.6 °C 34808.1 hPa SSE 17.9 km/h 17.9 km/h 76 % 0 mm 0.0 W/m2 CLR
07:48 -11.3 °C -13.4 °C 34808.1 hPa South 20.8 km/h 20.8 km/h 77 % 0 mm 0.0 W/m2 CLR
07:53 -11 °C -13.2 °C 34808.1 hPa SSE 18.2 km/h 18.2 km/h 77 % 0 mm 0.0 W/m2 CLR
07:58 -10.7 °C -12.9 °C 34808.1 hPa SE 17.9 km/h 17.9 km/h 77 % 0 mm 0.0 W/m2 CLR
08:03 -10.7 °C -12.9 °C 34808.1 hPa SSE 15 km/h 15 km/h 77 % 0 mm 0.0 W/m2 CLR
08:08 -10.7 °C -12.9 °C 34808.1 hPa SSE 23.8 km/h 23.8 km/h 77 % 0 mm 0.0 W/m2 CLR
08:13 -10.7 °C -12.9 °C 34808.1 hPa SSE 20.9 km/h 20.9 km/h 77 % 0 mm 0.0 W/m2 CLR
08:18 -10.7 °C -12.9 °C 34808.1 hPa South 17.9 km/h 17.9 km/h 77 % 0 mm 0.0 W/m2 OVC
08:23 -10.7 °C -12.9 °C 34808.1 hPa South 23.8 km/h 23.8 km/h 77 % 0 mm 0.0 W/m2 OVC
08:28 -10.7 °C -12.9 °C 34808.1 hPa South 17.9 km/h 17.9 km/h 77 % 0 mm 5.0 W/m2 OVC
08:33 -11 °C -13.2 °C 34808.1 hPa South 29.8 km/h 29.8 km/h 77 % 0 mm 9.0 W/m2 BKN
08:38 -11 °C -13.2 °C 34808.1 hPa SSE 32.8 km/h 32.8 km/h 77 % 0 mm 9.0 W/m2 BKN
08:43 -11 °C -13.2 °C 34808.1 hPa SSE 18.2 km/h 18.2 km/h 77 % 0 mm 14.0 W/m2 BKN
08:48 -10.7 °C -12.9 °C 34818.2 hPa SSE 15 km/h 15 km/h 77 % 0 mm 18.0 W/m2 BKN
08:53 -10.7 °C -12.9 °C 34818.2 hPa South 15.6 km/h 15.6 km/h 77 % 0 mm 21.0 W/m2 BKN
08:58 -10.7 °C -12.9 °C 34818.2 hPa South 29.8 km/h 29.8 km/h 77 % 0 mm 28.0 W/m2 BKN
09:03 -10.7 °C -12.9 °C 34818.2 hPa South 29.8 km/h 29.8 km/h 76 % 0 mm 39.0 W/m2 BKN
09:08 -10.7 °C -12.9 °C 34831.8 hPa South 20.9 km/h 20.9 km/h 76 % 0 mm 46.0 W/m2 SCT
09:13 -10.4 °C -12.8 °C 34831.8 hPa South 15 km/h 15 km/h 75 % 0 mm 62.0 W/m2 SCT
09:18 -10.4 °C -12.8 °C 34831.8 hPa South 32.8 km/h 32.8 km/h 75 % 0 mm 72.0 W/m2 FEW
09:19 -10.4 °C -12.9 °C 34831.8 hPa SSW 32.8 km/h 32.8 km/h 74 % 0 mm 72.0 W/m2 FEW
09:24 -10.4 °C -12.9 °C 34831.8 hPa South 36.2 km/h 36.2 km/h 74 % 0 mm 90.0 W/m2 CLR
09:29 -10.4 °C -13 °C 34831.8 hPa South 35.7 km/h 35.7 km/h 73 % 0 mm 104.0 W/m2 CLR
09:34 -10.1 °C -12.7 °C 34831.8 hPa South 32.8 km/h 32.8 km/h 73 % 0 mm 98.0 W/m2 CLR
09:39 -10.1 °C -12.8 °C 34831.8 hPa South 44.7 km/h 44.7 km/h 72 % 0 mm 127.0 W/m2 CLR
09:44 -10.1 °C -12.8 °C 34841.9 hPa SSW 44.7 km/h 44.7 km/h 72 % 0 mm 137.0 W/m2 CLR
09:49 -9.8 °C -12.7 °C 34841.9 hPa SSE 29.8 km/h 29.8 km/h 71 % 0 mm 137.0 W/m2 CLR
09:54 -9.8 °C -12.7 °C 34841.9 hPa SSW 9 km/h 9 km/h 71 % 0 mm 105.0 W/m2 CLR
09:59 -9.8 °C -12.7 °C 34841.9 hPa South 20.9 km/h 20.9 km/h 70 % 0 mm 142.0 W/m2 CLR
10:04 -9.4 °C -12.4 °C 34831.8 hPa SSW 35.7 km/h 35.7 km/h 70 % 0 mm 216.0 W/m2 CLR
10:09 -9.4 °C -12.4 °C 34831.8 hPa South 10.3 km/h 10.3 km/h 70 % 0 mm 236.0 W/m2 CLR
10:14 -9.4 °C -12.6 °C 34831.8 hPa SSW 38.8 km/h 38.8 km/h 69 % 0 mm 251.0 W/m2 CLR
10:19 -9.4 °C -12.7 °C 34831.8 hPa South 33.6 km/h 33.6 km/h 68 % 0 mm 265.0 W/m2 CLR
10:24 -9.1 °C -12.4 °C 34831.8 hPa SW 29.8 km/h 29.8 km/h 68 % 0 mm 279.0 W/m2 CLR
10:29 -9.1 °C -12.4 °C 34831.8 hPa South 23.8 km/h 23.8 km/h 68 % 0 mm 295.0 W/m2 CLR
10:34 -9.1 °C -12.4 °C 34841.9 hPa South 29.8 km/h 29.8 km/h 68 % 0 mm 299.0 W/m2 CLR
10:39 -9.1 °C -12.6 °C 34831.8 hPa SSW 35.7 km/h 35.7 km/h 67 % 0 mm 309.0 W/m2 CLR
10:44 -9.1 °C -12.6 °C 34831.8 hPa South 41.7 km/h 41.7 km/h 67 % 0 mm 332.0 W/m2 CLR
10:49 -8.8 °C -12.2 °C 34831.8 hPa South 35.7 km/h 35.7 km/h 67 % 0 mm 339.0 W/m2 CLR
10:54 -8.8 °C -12.3 °C 34831.8 hPa SW 38.8 km/h 38.8 km/h 66 % 0 mm 339.0 W/m2 CLR
10:59 -8.8 °C -12.3 °C 34831.8 hPa SSW 50.7 km/h 50.7 km/h 66 % 0 mm 346.0 W/m2 CLR
11:04 -8.8 °C -12.5 °C 34831.8 hPa SSW 32.8 km/h 32.8 km/h 65 % 0 mm 338.0 W/m2 CLR
11:09 -8.8 °C -12.3 °C 34831.8 hPa SW 38.8 km/h 38.8 km/h 66 % 0 mm 373.0 W/m2 CLR
11:14 -8.8 °C -12.5 °C 34831.8 hPa SW 32.8 km/h 32.8 km/h 65 % 0 mm 415.0 W/m2 CLR
11:19 -8.5 °C -12.1 °C 34831.8 hPa SSW 51.8 km/h 51.8 km/h 66 % 0 mm 427.0 W/m2 CLR
11:24 -8.2 °C -11.9 °C 34831.8 hPa SW 32.8 km/h 32.8 km/h 65 % 0 mm 431.0 W/m2 CLR
11:29 -8.2 °C -12.1 °C 34831.8 hPa WSW 51.8 km/h 51.8 km/h 64 % 0 mm 450.0 W/m2 CLR
11:34 -8.2 °C -12.1 °C 34818.2 hPa SW 32.8 km/h 32.8 km/h 64 % 0 mm 441.0 W/m2 CLR
11:39 -8.2 °C -12.2 °C 34818.2 hPa SW 46.7 km/h 46.7 km/h 63 % 0 mm 439.0 W/m2 CLR
11:44 -8.2 °C -12.1 °C 34818.2 hPa SSW 38.8 km/h 38.8 km/h 64 % 0 mm 443.0 W/m2 CLR
11:49 -7.9 °C -12 °C 34818.2 hPa SW 32.8 km/h 32.8 km/h 62 % 0 mm 462.0 W/m2 CLR
11:54 -8.2 °C -12.3 °C 34818.2 hPa SW 41.7 km/h 41.7 km/h 62 % 0 mm 429.0 W/m2 CLR
11:59 -8.2 °C -12.3 °C 34818.2 hPa SSW 38.8 km/h 38.8 km/h 62 % 0 mm 452.0 W/m2 CLR
12:04 -7.9 °C -12.1 °C 34818.2 hPa SSW 35.7 km/h 35.7 km/h 61 % 0 mm 443.0 W/m2 CLR
12:06 -7.9 °C -12.1 °C 34818.2 hPa SSW 35.7 km/h 35.7 km/h 61 % 0 mm 469.0 W/m2 CLR
12:11 -7.9 °C -12.1 °C 34808.1 hPa SW 31.1 km/h 31.1 km/h 61 % 0 mm 454.0 W/m2 CLR
12:16 -7.9 °C -12.3 °C 34818.2 hPa WSW 25.9 km/h 25.9 km/h 60 % 0 mm 353.0 W/m2 CLR
12:21 -7.9 °C -12.3 °C 34808.1 hPa SSW 29.8 km/h 29.8 km/h 60 % 0 mm 452.0 W/m2 CLR
12:26 -7.6 °C -12.1 °C 34818.2 hPa West 32.8 km/h 32.8 km/h 59 % 0 mm 499.0 W/m2 CLR
12:31 -7.6 °C -12.3 °C 34808.1 hPa WSW 38.8 km/h 38.8 km/h 58 % 0 mm 534.0 W/m2 CLR
12:36 -7.6 °C -12.3 °C 34808.1 hPa SW 44.7 km/h 44.7 km/h 58 % 0 mm 536.0 W/m2 CLR
12:41 -7.6 °C -12.4 °C 34808.1 hPa South 44.7 km/h 44.7 km/h 57 % 0 mm 541.0 W/m2 CLR
12:46 -7.3 °C -12 °C 34808.1 hPa SW 38.8 km/h 38.8 km/h 58 % 0 mm 543.0 W/m2 CLR
12:51 -7.3 °C -12.1 °C 34808.1 hPa SW 36.2 km/h 36.2 km/h 57 % 0 mm 547.0 W/m2 CLR
12:56 -7.3 °C -12.1 °C 34797.9 hPa WSW 38.8 km/h 38.8 km/h 57 % 0 mm 548.0 W/m2 CLR
13:01 -7.3 °C -12.3 °C 34797.9 hPa SSW 35.7 km/h 35.7 km/h 56 % 0 mm 555.0 W/m2 CLR
13:06 -7.3 °C -12.1 °C 34797.9 hPa South 36.2 km/h 36.2 km/h 57 % 0 mm 557.0 W/m2 CLR
13:11 -7.3 °C -12.3 °C 34797.9 hPa SW 20.9 km/h 20.9 km/h 56 % 0 mm 561.0 W/m2 CLR
13:16 -7 °C -12 °C 34797.9 hPa SSW 35.7 km/h 35.7 km/h 56 % 0 mm 563.0 W/m2 CLR
13:21 -7 °C -12.1 °C 34784.4 hPa SSW 26.9 km/h 26.9 km/h 55 % 0 mm 568.0 W/m2 CLR
13:27 -6.7 °C -11.8 °C 34784.4 hPa SSW 35.7 km/h 35.7 km/h 55 % 0 mm 568.0 W/m2 CLR
13:31 -6.7 °C -11.8 °C 34784.4 hPa WSW 38.8 km/h 38.8 km/h 55 % 0 mm 570.0 W/m2 CLR
13:36 -6.7 °C -12 °C 34784.4 hPa SSW 32.8 km/h 32.8 km/h 54 % 0 mm 571.0 W/m2 CLR
13:41 -6.7 °C -12.2 °C 34784.4 hPa South 38.8 km/h 38.8 km/h 53 % 0 mm 568.0 W/m2 CLR
13:42 -6.7 °C -12.2 °C 34784.4 hPa South 38.8 km/h 38.8 km/h 53 % 0 mm 568.0 W/m2 CLR
13:47 -6.7 °C -12 °C 34774.2 hPa SSW 29.8 km/h 29.8 km/h 54 % 0 mm 571.0 W/m2 CLR
13:52 -6.7 °C -12.2 °C 34774.2 hPa SSW 32.8 km/h 32.8 km/h 53 % 0 mm 570.0 W/m2 CLR
13:57 -6.7 °C -12.2 °C 34774.2 hPa SW 29.8 km/h 29.8 km/h 53 % 0 mm 570.0 W/m2 CLR
14:02 -6.3 °C -11.8 °C 34774.2 hPa WSW 29.8 km/h 29.8 km/h 53 % 0 mm 570.0 W/m2 CLR
14:07 -6.3 °C -11.8 °C 34774.2 hPa WSW 44.7 km/h 44.7 km/h 53 % 0 mm 566.0 W/m2 CLR
14:12 -6.3 °C -11.8 °C 34760.7 hPa WSW 44.7 km/h 44.7 km/h 53 % 0 mm 564.0 W/m2 CLR
14:22 -6.3 °C -11.8 °C 34760.7 hPa SW 35.7 km/h 35.7 km/h 53 % 0 mm 557.0 W/m2 CLR
14:27 -6.7 °C -12.2 °C 34760.7 hPa SW 32.8 km/h 32.8 km/h 53 % 0 mm 559.0 W/m2 CLR
14:32 -6.3 °C -11.8 °C 34760.7 hPa WSW 23.8 km/h 23.8 km/h 53 % 0 mm 550.0 W/m2 CLR
14:37 -6.1 °C -11.7 °C 34750.5 hPa SSW 32.8 km/h 32.8 km/h 52 % 0 mm 550.0 W/m2 CLR
14:42 -6.3 °C -12.1 °C 34750.5 hPa SW 35.7 km/h 35.7 km/h 52 % 0 mm 543.0 W/m2 CLR
14:47 -6.1 °C -11.7 °C 34750.5 hPa SW 38.8 km/h 38.8 km/h 52 % 0 mm 538.0 W/m2 CLR
14:52 -6.3 °C -12.1 °C 34750.5 hPa SW 26.9 km/h 26.9 km/h 52 % 0 mm 533.0 W/m2 CLR
14:57 -6.3 °C -12.2 °C 34750.5 hPa SW 41.7 km/h 41.7 km/h 51 % 0 mm 529.0 W/m2 CLR
15:02 -6.1 °C -12.1 °C 34740.4 hPa SSW 29.8 km/h 29.8 km/h 50 % 0 mm 522.0 W/m2 CLR
15:07 -6.1 °C -12.1 °C 34740.4 hPa SW 44.7 km/h 44.7 km/h 50 % 0 mm 519.0 W/m2 CLR
15:12 -6.1 °C -12.2 °C 34740.4 hPa South 32.8 km/h 32.8 km/h 49 % 0 mm 512.0 W/m2 CLR
15:17 -6.1 °C -12.1 °C 34740.4 hPa SW 26.9 km/h 26.9 km/h 50 % 0 mm 503.0 W/m2 CLR
15:22 -6.1 °C -12.2 °C 34740.4 hPa SW 38.8 km/h 38.8 km/h 49 % 0 mm 494.0 W/m2 CLR
15:27 -6.1 °C -12.1 °C 34740.4 hPa SW 33.6 km/h 33.6 km/h 50 % 0 mm 489.0 W/m2 CLR
15:32 -6.3 °C -12.3 °C 34740.4 hPa SW 26.9 km/h 26.9 km/h 50 % 0 mm 480.0 W/m2 CLR
15:37 -6.1 °C -12.1 °C 34726.8 hPa SW 23.8 km/h 23.8 km/h 50 % 0 mm 471.0 W/m2 CLR
15:42 -6.1 °C -12.2 °C 34726.8 hPa SW 35.7 km/h 35.7 km/h 49 % 0 mm 462.0 W/m2 CLR
15:47 -6.1 °C -12.2 °C 34726.8 hPa South 9 km/h 9 km/h 49 % 0 mm 455.0 W/m2 CLR
15:52 -5.7 °C -11.9 °C 34726.8 hPa WSW 38.8 km/h 38.8 km/h 49 % 0 mm 446.0 W/m2 CLR
15:57 -5.7 °C -12.1 °C 34726.8 hPa SW 15 km/h 15 km/h 48 % 0 mm 434.0 W/m2 CLR
16:02 -6.1 °C -12.4 °C 34726.8 hPa SSW 35.7 km/h 35.7 km/h 48 % 0 mm 424.0 W/m2 CLR
16:07 -6.1 °C -12.4 °C 34716.7 hPa South 23.8 km/h 23.8 km/h 48 % 0 mm 413.0 W/m2 CLR
16:12 -6.1 °C -12.6 °C 34716.7 hPa WSW 29.8 km/h 29.8 km/h 47 % 0 mm 403.0 W/m2 CLR
16:17 -6.1 °C -12.6 °C 34716.7 hPa SSW 32.8 km/h 32.8 km/h 47 % 0 mm 392.0 W/m2 CLR
16:22 -5.7 °C -12.3 °C 34716.7 hPa SSW 32.8 km/h 32.8 km/h 47 % 0 mm 381.0 W/m2 CLR
16:27 -5.7 °C -12.3 °C 34716.7 hPa SSW 32.8 km/h 32.8 km/h 47 % 0 mm 369.0 W/m2 CLR
16:32 -6.1 °C -12.7 °C 34716.7 hPa WSW 29.8 km/h 29.8 km/h 46 % 0 mm 357.0 W/m2 CLR
16:37 -5.7 °C -12.3 °C 34716.7 hPa SSW 29.8 km/h 29.8 km/h 47 % 0 mm 348.0 W/m2 CLR
16:42 -5.7 °C -12.4 °C 34716.7 hPa SW 32.8 km/h 32.8 km/h 46 % 0 mm 334.0 W/m2 CLR
16:47 -6.1 °C -12.7 °C 34716.7 hPa SW 29.8 km/h 29.8 km/h 46 % 0 mm 322.0 W/m2 CLR
16:53 -6.1 °C -12.7 °C 34716.7 hPa SSW 29.8 km/h 29.8 km/h 46 % 0 mm 308.0 W/m2 CLR
16:58 -6.1 °C -12.7 °C 34716.7 hPa SSW 26.9 km/h 26.9 km/h 46 % 0 mm 294.0 W/m2 CLR
17:03 -6.1 °C -12.7 °C 34716.7 hPa SW 29.8 km/h 29.8 km/h 46 % 0 mm 283.0 W/m2 CLR
17:08 -6.1 °C -12.7 °C 34716.7 hPa WSW 28.5 km/h 28.5 km/h 46 % 0 mm 269.0 W/m2 CLR
17:13 -6.1 °C -12.7 °C 34703.1 hPa SW 31.1 km/h 31.1 km/h 46 % 0 mm 253.0 W/m2 CLR
17:18 -6.1 °C -12.7 °C 34703.1 hPa SSW 26.9 km/h 26.9 km/h 46 % 0 mm 239.0 W/m2 CLR
17:23 -6.3 °C -13 °C 34703.1 hPa West 23.8 km/h 23.8 km/h 46 % 0 mm 223.0 W/m2 CLR
17:28 -6.3 °C -13 °C 34703.1 hPa SW 36.2 km/h 36.2 km/h 46 % 0 mm 207.0 W/m2 CLR
17:33 -6.3 °C -13 °C 34716.7 hPa SW 29.8 km/h 29.8 km/h 46 % 0 mm 190.0 W/m2 CLR
17:38 -6.3 °C -13 °C 34716.7 hPa SW 38.8 km/h 38.8 km/h 46 % 0 mm 174.0 W/m2 CLR
17:43 -6.3 °C -13 °C 34716.7 hPa SSW 26.9 km/h 26.9 km/h 46 % 0 mm 160.0 W/m2 CLR
17:48 -6.7 °C -13.2 °C 34716.7 hPa SSW 29.8 km/h 29.8 km/h 47 % 0 mm 141.0 W/m2 CLR
17:53 -6.7 °C -13.2 °C 34716.7 hPa SSW 29.8 km/h 29.8 km/h 47 % 0 mm 123.0 W/m2 CLR
17:58 -6.7 °C -13.2 °C 34716.7 hPa SW 32.8 km/h 32.8 km/h 47 % 0 mm 109.0 W/m2 CLR
18:03 -7 °C -13.4 °C 34716.7 hPa SW 29.8 km/h 29.8 km/h 47 % 0 mm 95.0 W/m2 CLR
18:08 -7 °C -13.4 °C 34716.7 hPa WSW 32.8 km/h 32.8 km/h 47 % 0 mm 79.0 W/m2 FEW
18:13 -7 °C -13.4 °C 34716.7 hPa SW 29.8 km/h 29.8 km/h 47 % 0 mm 65.0 W/m2 FEW
18:18 -7 °C -13.2 °C 34726.8 hPa SW 28.5 km/h 28.5 km/h 48 % 0 mm 53.0 W/m2 SCT
18:23 -7 °C -13.2 °C 34716.7 hPa SW 29.8 km/h 29.8 km/h 48 % 0 mm 44.0 W/m2 SCT
18:28 -7.3 °C -13.6 °C 34716.7 hPa WSW 23.3 km/h 23.3 km/h 48 % 0 mm 33.0 W/m2 BKN
18:33 -7.3 °C -13.4 °C 34726.8 hPa SW 32.8 km/h 32.8 km/h 49 % 0 mm 25.0 W/m2 BKN
18:38 -7.6 °C -13.7 °C 34726.8 hPa WSW 29.8 km/h 29.8 km/h 49 % 0 mm 18.0 W/m2 BKN
18:43 -7.6 °C -13.5 °C 34726.8 hPa SW 32.8 km/h 32.8 km/h 50 % 0 mm 14.0 W/m2 BKN
18:48 -7.6 °C -13.5 °C 34726.8 hPa WSW 23.8 km/h 23.8 km/h 50 % 0 mm 12.0 W/m2 BKN
18:53 -7.6 °C -13.5 °C 34726.8 hPa WSW 29.8 km/h 29.8 km/h 50 % 0 mm 9.0 W/m2 BKN
18:58 -7.6 °C -13.3 °C 34726.8 hPa SW 9 km/h 9 km/h 51 % 0 mm 7.0 W/m2 BKN
19:03 -7.9 °C -13.6 °C 34740.4 hPa Calm     51 % 0 mm 0.0 W/m2 OVC
19:08 -8.2 °C -13.9 °C 34740.4 hPa SSW 17.9 km/h 17.9 km/h 51 % 0 mm 0.0 W/m2 OVC
19:13 -8.5 °C -14.2 °C 34740.4 hPa SW 29.8 km/h 29.8 km/h 51 % 0 mm 0.0 W/m2 CLR
19:18 -8.5 °C -14 °C 34740.4 hPa SW 20.9 km/h 20.9 km/h 52 % 0 mm 0.0 W/m2 CLR
19:23 -8.8 °C -14.3 °C 34740.4 hPa SW 25.9 km/h 25.9 km/h 52 % 0 mm 0.0 W/m2 CLR
19:28 -8.8 °C -14.3 °C 34750.5 hPa SSW 26.9 km/h 26.9 km/h 52 % 0 mm 0.0 W/m2 CLR
19:33 -8.8 °C -14.2 °C 34750.5 hPa SW 29.8 km/h 29.8 km/h 53 % 0 mm 0.0 W/m2 CLR
19:38 -8.8 °C -14.2 °C 34750.5 hPa SW 23.8 km/h 23.8 km/h 53 % 0 mm 0.0 W/m2 CLR
19:43 -8.8 °C -14.2 °C 34750.5 hPa SW 29.8 km/h 29.8 km/h 53 % 0 mm 0.0 W/m2 CLR
19:48 -8.8 °C -14 °C 34750.5 hPa SSW 41.7 km/h 41.7 km/h 54 % 0 mm 0.0 W/m2 CLR
19:53 -8.8 °C -14 °C 34760.7 hPa SW 47.6 km/h 47.6 km/h 54 % 0 mm 0.0 W/m2 CLR
19:58 -8.8 °C -14 °C 34760.7 hPa SW 31.1 km/h 31.1 km/h 54 % 0 mm 0.0 W/m2 CLR
20:03 -8.8 °C -13.8 °C 34760.7 hPa WSW 31.1 km/h 31.1 km/h 55 % 0 mm 0.0 W/m2 CLR
20:08 -8.8 °C -13.8 °C 34760.7 hPa SW 41.7 km/h 41.7 km/h 55 % 0 mm 0.0 W/m2 CLR
20:13 -9.1 °C -14 °C 34760.7 hPa SSW 26.9 km/h 26.9 km/h 56 % 0 mm 0.0 W/m2 CLR
20:18 -9.1 °C -14 °C 34760.7 hPa SSW 29.8 km/h 29.8 km/h 56 % 0 mm 0.0 W/m2 CLR
20:23 -9.1 °C -13.8 °C 34760.7 hPa SSW 29.8 km/h 29.8 km/h 57 % 0 mm 0.0 W/m2 CLR
20:28 -9.1 °C -13.8 °C 34760.7 hPa SSW 20.9 km/h 20.9 km/h 57 % 0 mm 0.0 W/m2 CLR
20:33 -9.4 °C -14 °C 34760.7 hPa SSW 31.1 km/h 31.1 km/h 58 % 0 mm 0.0 W/m2 CLR
20:38 -9.4 °C -14 °C 34760.7 hPa SW 32.8 km/h 32.8 km/h 58 % 0 mm 0.0 W/m2 CLR
20:43 -9.4 °C -14 °C 34760.7 hPa SW 23.8 km/h 23.8 km/h 58 % 0 mm 0.0 W/m2 CLR
20:48 -9.4 °C -13.8 °C 34760.7 hPa SSW 23.8 km/h 23.8 km/h 59 % 0 mm 0.0 W/m2 CLR
20:53 -9.4 °C -13.8 °C 34760.7 hPa South 29.8 km/h 29.8 km/h 59 % 0 mm 0.0 W/m2 CLR
20:58 -9.4 °C -13.8 °C 34760.7 hPa WSW 29.8 km/h 29.8 km/h 59 % 0 mm 0.0 W/m2 CLR
21:03 -9.4 °C -13.8 °C 34760.7 hPa SSW 26.9 km/h 26.9 km/h 59 % 0 mm 0.0 W/m2 CLR
21:08 -9.4 °C -13.8 °C 34760.7 hPa SSW 31.1 km/h 31.1 km/h 59 % 0 mm 0.0 W/m2 CLR
21:13 -9.4 °C -13.8 °C 34760.7 hPa SSW 29.8 km/h 29.8 km/h 59 % 0 mm 0.0 W/m2 CLR
21:18 -9.4 °C -13.8 °C 34760.7 hPa SSW 17.9 km/h 17.9 km/h 59 % 0 mm 0.0 W/m2 CLR
21:23 -9.8 °C -14.2 °C 34760.7 hPa SSW 29.8 km/h 29.8 km/h 59 % 0 mm 0.0 W/m2 CLR
21:28 -10.1 °C -14.4 °C 34760.7 hPa SSW 20.9 km/h 20.9 km/h 59 % 0 mm 0.0 W/m2 CLR
21:33 -10.4 °C -14.6 °C 34760.7 hPa SSW 29.8 km/h 29.8 km/h 60 % 0 mm 0.0 W/m2 CLR
21:38 -10.7 °C -14.9 °C 34760.7 hPa SW 26.9 km/h 26.9 km/h 60 % 0 mm 0.0 W/m2 CLR
21:44 -10.7 °C -14.9 °C 34760.7 hPa SW 25.9 km/h 25.9 km/h 60 % 0 mm 0.0 W/m2 CLR
21:49 -11 °C -15.1 °C 34760.7 hPa SSW 23.8 km/h 23.8 km/h 61 % 0 mm 0.0 W/m2 CLR
21:54 -10.7 °C -14.8 °C 34760.7 hPa SW 26.9 km/h 26.9 km/h 61 % 0 mm 0.0 W/m2 CLR
21:59 -10.7 °C -14.8 °C 34760.7 hPa SSW 32.8 km/h 32.8 km/h 61 % 0 mm 0.0 W/m2 CLR
22:04 -10.4 °C -14.5 °C 34760.7 hPa SSW 29.8 km/h 29.8 km/h 61 % 0 mm 0.0 W/m2 CLR
22:09 -10.1 °C -14.2 °C 34760.7 hPa SW 29.8 km/h 29.8 km/h 61 % 0 mm 0.0 W/m2 CLR
22:14 -10.1 °C -14.2 °C 34760.7 hPa SSW 26.9 km/h 26.9 km/h 61 % 0 mm 0.0 W/m2 CLR
22:19 -10.1 °C -14.1 °C 34774.2 hPa South 29.8 km/h 29.8 km/h 62 % 0 mm 0.0 W/m2 CLR
22:24 -10.1 °C -14.1 °C 34774.2 hPa SSW 23.8 km/h 23.8 km/h 62 % 0 mm 0.0 W/m2 CLR
22:29 -10.1 °C -14.1 °C 34774.2 hPa SSW 29.8 km/h 29.8 km/h 62 % 0 mm 0.0 W/m2 CLR
22:34 -10.1 °C -14.1 °C 34774.2 hPa South 23.3 km/h 23.3 km/h 62 % 0 mm 0.0 W/m2 CLR
22:39 -10.1 °C -14.1 °C 34774.2 hPa SSW 29.8 km/h 29.8 km/h 62 % 0 mm 0.0 W/m2 CLR
22:44 -10.1 °C -14.1 °C 34774.2 hPa South 23.8 km/h 23.8 km/h 62 % 0 mm 0.0 W/m2 CLR
22:49 -10.4 °C -14.3 °C 34774.2 hPa SSW 20.9 km/h 20.9 km/h 62 % 0 mm 0.0 W/m2 CLR
22:54 -10.7 °C -14.5 °C 34760.7 hPa SSW 23.8 km/h 23.8 km/h 63 % 0 mm 0.0 W/m2 CLR
22:59 -10.7 °C -14.5 °C 34760.7 hPa SSW 25.9 km/h 25.9 km/h 63 % 0 mm 0.0 W/m2 CLR
23:04 -11 °C -14.8 °C 34774.2 hPa South 15.6 km/h 15.6 km/h 63 % 0 mm 0.0 W/m2 CLR
23:09 -11 °C -14.7 °C 34774.2 hPa South 9 km/h 9 km/h 64 % 0 mm 0.0 W/m2 CLR
23:14 -11.3 °C -14.9 °C 34760.7 hPa SSW 26.9 km/h 26.9 km/h 64 % 0 mm 0.0 W/m2 CLR
23:19 -11.3 °C -14.8 °C 34774.2 hPa SSW 26.9 km/h 26.9 km/h 65 % 0 mm 0.0 W/m2 CLR
23:24 -11.6 °C -15.1 °C 34774.2 hPa SSW 9 km/h 9 km/h 65 % 0 mm 0.0 W/m2 CLR
23:29 -11.6 °C -15.1 °C 34774.2 hPa SSW 29.8 km/h 29.8 km/h 65 % 0 mm 0.0 W/m2 CLR
23:34 -11.3 °C -14.8 °C 34774.2 hPa South 17.9 km/h 17.9 km/h 65 % 0 mm 0.0 W/m2 CLR
23:39 -11.3 °C -14.8 °C 34774.2 hPa Calm     65 % 0 mm 0.0 W/m2 CLR
23:44 -11.6 °C -15.1 °C 34774.2 hPa SSE 7.7 km/h 7.7 km/h 65 % 0 mm 0.0 W/m2 CLR
23:49 -11.6 °C -15 °C 34774.2 hPa Calm     66 % 0 mm 0.0 W/m2 CLR
23:54 -11.9 °C -15.2 °C 34774.2 hPa South 23.3 km/h 23.3 km/h 67 % 0 mm 0.0 W/m2 CLR
23:59 -12.2 °C -15.4 °C 34774.2 hPa SSW 29.8 km/h 29.8 km/h 67 % 0 mm 0.0 W/m2 CLR
Lo Temps de Massalio
Compliments of Weather Underground - 1.25 mb